sensor_id;sensor_type;location;lat;lon;timestamp;P1;durP1;ratioP1;P2;durP2;ratioP2
22646;SDS011;11490;42.726;23.268;2022-11-02T00:03:57;12.57;;;7.63;;
22646;SDS011;11490;42.726;23.268;2022-11-02T00:06:23;13.45;;;7.32;;
22646;SDS011;11490;42.726;23.268;2022-11-02T00:08:48;13.52;;;6.75;;
22646;SDS011;11490;42.726;23.268;2022-11-02T00:11:13;15.35;;;7.93;;
22646;SDS011;11490;42.726;23.268;2022-11-02T00:13:39;13.35;;;7.53;;
22646;SDS011;11490;42.726;23.268;2022-11-02T00:16:05;11.60;;;6.65;;
22646;SDS011;11490;42.726;23.268;2022-11-02T00:18:34;10.05;;;6.10;;
22646;SDS011;11490;42.726;23.268;2022-11-02T00:21:00;14.27;;;8.05;;
22646;SDS011;11490;42.726;23.268;2022-11-02T00:23:26;8.82;;;6.53;;
22646;SDS011;11490;42.726;23.268;2022-11-02T00:25:52;8.82;;;6.85;;
22646;SDS011;11490;42.726;23.268;2022-11-02T00:28:19;14.00;;;7.65;;
22646;SDS011;11490;42.726;23.268;2022-11-02T00:30:44;12.63;;;6.68;;
22646;SDS011;11490;42.726;23.268;2022-11-02T00:33:10;16.70;;;8.23;;
22646;SDS011;11490;42.726;23.268;2022-11-02T00:35:35;12.63;;;7.65;;
22646;SDS011;11490;42.726;23.268;2022-11-02T00:38:02;13.00;;;6.88;;
22646;SDS011;11490;42.726;23.268;2022-11-02T00:40:28;15.25;;;7.18;;
22646;SDS011;11490;42.726;23.268;2022-11-02T00:42:53;12.75;;;7.22;;
22646;SDS011;11490;42.726;23.268;2022-11-02T00:45:19;9.82;;;6.70;;
22646;SDS011;11490;42.726;23.268;2022-11-02T00:47:45;16.88;;;6.47;;
22646;SDS011;11490;42.726;23.268;2022-11-02T00:50:10;22.38;;;7.68;;
22646;SDS011;11490;42.726;23.268;2022-11-02T00:52:37;11.02;;;5.97;;
22646;SDS011;11490;42.726;23.268;2022-11-02T00:55:04;15.88;;;6.78;;
22646;SDS011;11490;42.726;23.268;2022-11-02T00:57:30;12.35;;;6.82;;
22646;SDS011;11490;42.726;23.268;2022-11-02T00:59:56;8.48;;;5.30;;
22646;SDS011;11490;42.726;23.268;2022-11-02T01:02:21;8.98;;;6.32;;
22646;SDS011;11490;42.726;23.268;2022-11-02T01:04:46;13.38;;;6.07;;
22646;SDS011;11490;42.726;23.268;2022-11-02T01:07:12;7.72;;;6.32;;
22646;SDS011;11490;42.726;23.268;2022-11-02T01:09:37;11.82;;;7.28;;
22646;SDS011;11490;42.726;23.268;2022-11-02T01:12:03;10.77;;;5.95;;
22646;SDS011;11490;42.726;23.268;2022-11-02T01:14:29;9.75;;;6.13;;
22646;SDS011;11490;42.726;23.268;2022-11-02T01:16:54;7.65;;;5.60;;
22646;SDS011;11490;42.726;23.268;2022-11-02T01:19:21;8.77;;;5.32;;
22646;SDS011;11490;42.726;23.268;2022-11-02T01:21:48;13.45;;;5.97;;
22646;SDS011;11490;42.726;23.268;2022-11-02T01:24:13;16.20;;;7.70;;
22646;SDS011;11490;42.726;23.268;2022-11-02T01:26:39;8.68;;;5.47;;
22646;SDS011;11490;42.726;23.268;2022-11-02T01:29:04;11.88;;;7.10;;
22646;SDS011;11490;42.726;23.268;2022-11-02T01:31:29;9.43;;;6.63;;
22646;SDS011;11490;42.726;23.268;2022-11-02T01:33:55;11.73;;;6.68;;
22646;SDS011;11490;42.726;23.268;2022-11-02T01:36:20;11.40;;;6.53;;
22646;SDS011;11490;42.726;23.268;2022-11-02T01:38:46;10.20;;;6.28;;
22646;SDS011;11490;42.726;23.268;2022-11-02T01:41:13;8.52;;;6.60;;
22646;SDS011;11490;42.726;23.268;2022-11-02T01:43:40;11.60;;;6.63;;
22646;SDS011;11490;42.726;23.268;2022-11-02T01:48:36;11.00;;;6.72;;
22646;SDS011;11490;42.726;23.268;2022-11-02T01:51:11;7.88;;;6.25;;
22646;SDS011;11490;42.726;23.268;2022-11-02T01:53:42;9.77;;;6.43;;
22646;SDS011;11490;42.726;23.268;2022-11-02T01:56:09;8.80;;;5.97;;
22646;SDS011;11490;42.726;23.268;2022-11-02T01:58:38;9.52;;;5.95;;
22646;SDS011;11490;42.726;23.268;2022-11-02T02:01:04;12.57;;;6.68;;
22646;SDS011;11490;42.726;23.268;2022-11-02T02:03:31;9.18;;;6.45;;
22646;SDS011;11490;42.726;23.268;2022-11-02T02:05:59;13.40;;;7.15;;
22646;SDS011;11490;42.726;23.268;2022-11-02T02:08:30;11.60;;;6.90;;
22646;SDS011;11490;42.726;23.268;2022-11-02T02:10:57;15.52;;;7.05;;
22646;SDS011;11490;42.726;23.268;2022-11-02T02:13:23;9.73;;;6.13;;
22646;SDS011;11490;42.726;23.268;2022-11-02T02:24:17;11.65;;;5.55;;
22646;SDS011;11490;42.726;23.268;2022-11-02T02:29:25;13.48;;;7.80;;
22646;SDS011;11490;42.726;23.268;2022-11-02T02:31:59;9.55;;;6.40;;
22646;SDS011;11490;42.726;23.268;2022-11-02T02:34:34;8.43;;;5.53;;
22646;SDS011;11490;42.726;23.268;2022-11-02T02:37:13;13.35;;;6.07;;
22646;SDS011;11490;42.726;23.268;2022-11-02T02:42:32;10.13;;;5.75;;
22646;SDS011;11490;42.726;23.268;2022-11-02T02:45:12;13.10;;;6.25;;
22646;SDS011;11490;42.726;23.268;2022-11-02T02:47:43;10.55;;;5.88;;
22646;SDS011;11490;42.726;23.268;2022-11-02T02:50:16;12.35;;;6.53;;
22646;SDS011;11490;42.726;23.268;2022-11-02T02:52:45;12.15;;;5.65;;
22646;SDS011;11490;42.726;23.268;2022-11-02T02:55:19;12.02;;;6.47;;
22646;SDS011;11490;42.726;23.268;2022-11-02T02:57:49;10.05;;;6.22;;
22646;SDS011;11490;42.726;23.268;2022-11-02T03:00:16;8.88;;;5.90;;
22646;SDS011;11490;42.726;23.268;2022-11-02T03:02:43;9.73;;;6.20;;
22646;SDS011;11490;42.726;23.268;2022-11-02T03:05:25;13.10;;;6.20;;
22646;SDS011;11490;42.726;23.268;2022-11-02T03:07:56;9.20;;;5.88;;
22646;SDS011;11490;42.726;23.268;2022-11-02T03:10:31;9.18;;;6.45;;
22646;SDS011;11490;42.726;23.268;2022-11-02T03:18:48;9.85;;;5.97;;
22646;SDS011;11490;42.726;23.268;2022-11-02T03:21:38;8.10;;;6.38;;
22646;SDS011;11490;42.726;23.268;2022-11-02T03:24:13;11.93;;;6.43;;
22646;SDS011;11490;42.726;23.268;2022-11-02T03:26:47;12.90;;;6.60;;
22646;SDS011;11490;42.726;23.268;2022-11-02T03:29:25;10.15;;;6.47;;
22646;SDS011;11490;42.726;23.268;2022-11-02T03:31:59;13.05;;;7.50;;
22646;SDS011;11490;42.726;23.268;2022-11-02T03:34:39;13.88;;;6.32;;
22646;SDS011;11490;42.726;23.268;2022-11-02T03:39:38;7.90;;;6.53;;
22646;SDS011;11490;42.726;23.268;2022-11-02T03:42:08;14.05;;;8.30;;
22646;SDS011;11490;42.726;23.268;2022-11-02T03:44:37;11.18;;;7.35;;
22646;SDS011;11490;42.726;23.268;2022-11-02T03:47:04;17.77;;;7.30;;
22646;SDS011;11490;42.726;23.268;2022-11-02T03:49:35;11.65;;;6.78;;
22646;SDS011;11490;42.726;23.268;2022-11-02T03:52:05;11.52;;;7.32;;
22646;SDS011;11490;42.726;23.268;2022-11-02T03:57:02;15.38;;;7.35;;
22646;SDS011;11490;42.726;23.268;2022-11-02T03:59:31;11.82;;;7.72;;
22646;SDS011;11490;42.726;23.268;2022-11-02T04:01:56;10.95;;;7.20;;
22646;SDS011;11490;42.726;23.268;2022-11-02T04:04:24;14.20;;;7.55;;
22646;SDS011;11490;42.726;23.268;2022-11-02T04:06:49;12.68;;;8.98;;
22646;SDS011;11490;42.726;23.268;2022-11-02T04:09:16;40.72;;;17.67;;
22646;SDS011;11490;42.726;23.268;2022-11-02T04:11:42;42.30;;;18.77;;
22646;SDS011;11490;42.726;23.268;2022-11-02T04:14:26;36.22;;;16.67;;
22646;SDS011;11490;42.726;23.268;2022-11-02T04:17:04;30.20;;;15.60;;
22646;SDS011;11490;42.726;23.268;2022-11-02T04:19:51;26.83;;;13.07;;
22646;SDS011;11490;42.726;23.268;2022-11-02T04:22:17;14.77;;;9.07;;
22646;SDS011;11490;42.726;23.268;2022-11-02T04:25:02;19.65;;;9.38;;
22646;SDS011;11490;42.726;23.268;2022-11-02T04:27:42;14.73;;;8.90;;
22646;SDS011;11490;42.726;23.268;2022-11-02T04:30:12;14.65;;;9.20;;
22646;SDS011;11490;42.726;23.268;2022-11-02T04:32:39;15.63;;;8.27;;
22646;SDS011;11490;42.726;23.268;2022-11-02T04:35:25;12.23;;;7.78;;
22646;SDS011;11490;42.726;23.268;2022-11-02T04:37:50;17.15;;;7.50;;
22646;SDS011;11490;42.726;23.268;2022-11-02T04:40:35;17.77;;;8.93;;
22646;SDS011;11490;42.726;23.268;2022-11-02T04:43:00;23.40;;;11.43;;
22646;SDS011;11490;42.726;23.268;2022-11-02T04:45:25;30.15;;;15.90;;
22646;SDS011;11490;42.726;23.268;2022-11-02T04:47:51;25.45;;;12.23;;
22646;SDS011;11490;42.726;23.268;2022-11-02T04:50:16;22.55;;;11.82;;
22646;SDS011;11490;42.726;23.268;2022-11-02T04:52:42;19.10;;;10.43;;
22646;SDS011;11490;42.726;23.268;2022-11-02T04:55:07;20.48;;;10.00;;
22646;SDS011;11490;42.726;23.268;2022-11-02T04:57:33;29.30;;;14.43;;
22646;SDS011;11490;42.726;23.268;2022-11-02T04:59:59;24.70;;;14.27;;
22646;SDS011;11490;42.726;23.268;2022-11-02T05:02:25;22.27;;;13.73;;
22646;SDS011;11490;42.726;23.268;2022-11-02T05:04:50;29.35;;;13.55;;
22646;SDS011;11490;42.726;23.268;2022-11-02T05:07:16;30.58;;;14.70;;
22646;SDS011;11490;42.726;23.268;2022-11-02T05:09:41;25.02;;;13.73;;
22646;SDS011;11490;42.726;23.268;2022-11-02T05:12:06;24.85;;;13.88;;
22646;SDS011;11490;42.726;23.268;2022-11-02T05:14:32;34.90;;;15.00;;
22646;SDS011;11490;42.726;23.268;2022-11-02T05:16:58;40.65;;;16.38;;
22646;SDS011;11490;42.726;23.268;2022-11-02T05:19:24;47.20;;;28.95;;
22646;SDS011;11490;42.726;23.268;2022-11-02T05:21:49;44.47;;;25.77;;
22646;SDS011;11490;42.726;23.268;2022-11-02T05:24:15;46.33;;;24.05;;
22646;SDS011;11490;42.726;23.268;2022-11-02T05:26:40;57.17;;;29.90;;
22646;SDS011;11490;42.726;23.268;2022-11-02T05:29:06;76.25;;;42.08;;
22646;SDS011;11490;42.726;23.268;2022-11-02T05:31:31;137.02;;;55.83;;
22646;SDS011;11490;42.726;23.268;2022-11-02T05:33:57;101.88;;;46.65;;
22646;SDS011;11490;42.726;23.268;2022-11-02T05:36:22;87.38;;;39.17;;
22646;SDS011;11490;42.726;23.268;2022-11-02T05:38:51;93.78;;;42.88;;
22646;SDS011;11490;42.726;23.268;2022-11-02T05:41:18;94.95;;;39.85;;
22646;SDS011;11490;42.726;23.268;2022-11-02T05:43:43;83.90;;;38.70;;
22646;SDS011;11490;42.726;23.268;2022-11-02T05:46:08;63.85;;;30.85;;
22646;SDS011;11490;42.726;23.268;2022-11-02T05:48:34;68.07;;;28.95;;
22646;SDS011;11490;42.726;23.268;2022-11-02T05:51:00;45.05;;;23.67;;
22646;SDS011;11490;42.726;23.268;2022-11-02T05:53:27;42.00;;;20.67;;
22646;SDS011;11490;42.726;23.268;2022-11-02T05:55:58;29.27;;;19.55;;
22646;SDS011;11490;42.726;23.268;2022-11-02T05:58:25;30.98;;;18.60;;
22646;SDS011;11490;42.726;23.268;2022-11-02T06:00:51;31.08;;;19.00;;
22646;SDS011;11490;42.726;23.268;2022-11-02T06:03:17;32.75;;;19.63;;
22646;SDS011;11490;42.726;23.268;2022-11-02T06:05:42;42.28;;;19.15;;
22646;SDS011;11490;42.726;23.268;2022-11-02T06:08:08;52.47;;;21.00;;
22646;SDS011;11490;42.726;23.268;2022-11-02T06:10:33;32.15;;;19.35;;
22646;SDS011;11490;42.726;23.268;2022-11-02T06:13:00;26.63;;;16.73;;
22646;SDS011;11490;42.726;23.268;2022-11-02T06:15:27;30.02;;;16.77;;
22646;SDS011;11490;42.726;23.268;2022-11-02T06:17:54;39.22;;;16.75;;
22646;SDS011;11490;42.726;23.268;2022-11-02T06:20:19;25.38;;;15.45;;
22646;SDS011;11490;42.726;23.268;2022-11-02T06:22:45;18.05;;;9.10;;
22646;SDS011;11490;42.726;23.268;2022-11-02T06:25:11;14.23;;;8.65;;
22646;SDS011;11490;42.726;23.268;2022-11-02T06:27:37;16.90;;;10.27;;
22646;SDS011;11490;42.726;23.268;2022-11-02T06:30:03;18.70;;;9.05;;
22646;SDS011;11490;42.726;23.268;2022-11-02T06:32:29;15.43;;;8.55;;
22646;SDS011;11490;42.726;23.268;2022-11-02T06:34:55;11.32;;;8.15;;
22646;SDS011;11490;42.726;23.268;2022-11-02T06:37:20;20.67;;;8.13;;
22646;SDS011;11490;42.726;23.268;2022-11-02T06:39:47;22.20;;;8.52;;
22646;SDS011;11490;42.726;23.268;2022-11-02T06:42:12;16.63;;;8.50;;
22646;SDS011;11490;42.726;23.268;2022-11-02T06:44:37;15.38;;;8.45;;
22646;SDS011;11490;42.726;23.268;2022-11-02T06:47:04;14.32;;;8.10;;
22646;SDS011;11490;42.726;23.268;2022-11-02T06:49:29;18.48;;;8.75;;
22646;SDS011;11490;42.726;23.268;2022-11-02T06:51:54;17.50;;;8.45;;
22646;SDS011;11490;42.726;23.268;2022-11-02T06:54:20;16.73;;;8.70;;
22646;SDS011;11490;42.726;23.268;2022-11-02T06:56:45;15.82;;;8.10;;
22646;SDS011;11490;42.726;23.268;2022-11-02T06:59:11;11.63;;;8.05;;
22646;SDS011;11490;42.726;23.268;2022-11-02T07:01:36;20.38;;;9.95;;
22646;SDS011;11490;42.726;23.268;2022-11-02T07:04:01;27.95;;;9.30;;
22646;SDS011;11490;42.726;23.268;2022-11-02T07:06:27;16.77;;;8.98;;
22646;SDS011;11490;42.726;23.268;2022-11-02T07:08:53;27.67;;;8.85;;
22646;SDS011;11490;42.726;23.268;2022-11-02T07:11:19;16.00;;;8.60;;
22646;SDS011;11490;42.726;23.268;2022-11-02T07:13:44;28.33;;;10.20;;
22646;SDS011;11490;42.726;23.268;2022-11-02T07:16:10;13.68;;;8.18;;
22646;SDS011;11490;42.726;23.268;2022-11-02T07:18:36;18.90;;;9.98;;
22646;SDS011;11490;42.726;23.268;2022-11-02T07:21:01;13.30;;;8.70;;
22646;SDS011;11490;42.726;23.268;2022-11-02T07:23:27;23.42;;;9.93;;
22646;SDS011;11490;42.726;23.268;2022-11-02T07:25:53;13.77;;;9.15;;
22646;SDS011;11490;42.726;23.268;2022-11-02T07:28:19;24.23;;;10.85;;
22646;SDS011;11490;42.726;23.268;2022-11-02T07:30:45;20.67;;;9.38;;
22646;SDS011;11490;42.726;23.268;2022-11-02T07:33:10;16.23;;;9.45;;
22646;SDS011;11490;42.726;23.268;2022-11-02T07:35:35;24.67;;;11.35;;
22646;SDS011;11490;42.726;23.268;2022-11-02T07:38:05;20.33;;;9.77;;
22646;SDS011;11490;42.726;23.268;2022-11-02T07:40:32;16.50;;;9.30;;
22646;SDS011;11490;42.726;23.268;2022-11-02T07:43:00;23.23;;;8.10;;
22646;SDS011;11490;42.726;23.268;2022-11-02T07:45:26;23.00;;;8.23;;
22646;SDS011;11490;42.726;23.268;2022-11-02T07:47:53;20.95;;;10.50;;
22646;SDS011;11490;42.726;23.268;2022-11-02T07:50:22;22.00;;;9.68;;
22646;SDS011;11490;42.726;23.268;2022-11-02T07:52:49;21.63;;;11.50;;
22646;SDS011;11490;42.726;23.268;2022-11-02T07:55:17;18.50;;;10.35;;
22646;SDS011;11490;42.726;23.268;2022-11-02T07:57:51;17.05;;;8.32;;
22646;SDS011;11490;42.726;23.268;2022-11-02T08:00:33;19.27;;;9.90;;
22646;SDS011;11490;42.726;23.268;2022-11-02T08:03:02;23.02;;;10.18;;
22646;SDS011;11490;42.726;23.268;2022-11-02T08:05:29;23.67;;;9.10;;
22646;SDS011;11490;42.726;23.268;2022-11-02T08:08:01;25.52;;;9.50;;
22646;SDS011;11490;42.726;23.268;2022-11-02T08:10:31;17.95;;;9.80;;
22646;SDS011;11490;42.726;23.268;2022-11-02T08:12:59;21.60;;;10.43;;
22646;SDS011;11490;42.726;23.268;2022-11-02T08:15:24;22.02;;;9.00;;
22646;SDS011;11490;42.726;23.268;2022-11-02T08:20:29;19.05;;;8.70;;
22646;SDS011;11490;42.726;23.268;2022-11-02T08:22:55;20.05;;;7.82;;
22646;SDS011;11490;42.726;23.268;2022-11-02T08:25:20;22.13;;;9.80;;
22646;SDS011;11490;42.726;23.268;2022-11-02T08:27:46;27.00;;;9.82;;
22646;SDS011;11490;42.726;23.268;2022-11-02T08:30:11;20.38;;;8.27;;
22646;SDS011;11490;42.726;23.268;2022-11-02T08:32:37;17.50;;;8.90;;
22646;SDS011;11490;42.726;23.268;2022-11-02T08:35:02;18.85;;;8.63;;
22646;SDS011;11490;42.726;23.268;2022-11-02T08:37:28;23.75;;;7.82;;
22646;SDS011;11490;42.726;23.268;2022-11-02T08:39:54;16.98;;;8.63;;
22646;SDS011;11490;42.726;23.268;2022-11-02T08:42:19;16.83;;;7.20;;
22646;SDS011;11490;42.726;23.268;2022-11-02T08:44:44;15.30;;;7.68;;
22646;SDS011;11490;42.726;23.268;2022-11-02T08:47:13;27.30;;;8.80;;
22646;SDS011;11490;42.726;23.268;2022-11-02T08:49:39;19.58;;;9.40;;
22646;SDS011;11490;42.726;23.268;2022-11-02T08:52:05;18.35;;;8.55;;
22646;SDS011;11490;42.726;23.268;2022-11-02T08:54:30;14.63;;;7.32;;
22646;SDS011;11490;42.726;23.268;2022-11-02T08:56:56;21.70;;;8.85;;
22646;SDS011;11490;42.726;23.268;2022-11-02T08:59:21;17.02;;;8.18;;
22646;SDS011;11490;42.726;23.268;2022-11-02T09:01:47;15.82;;;8.35;;
22646;SDS011;11490;42.726;23.268;2022-11-02T09:04:12;19.67;;;9.18;;
22646;SDS011;11490;42.726;23.268;2022-11-02T09:06:37;12.45;;;7.47;;
22646;SDS011;11490;42.726;23.268;2022-11-02T09:09:03;16.30;;;7.90;;
22646;SDS011;11490;42.726;23.268;2022-11-02T09:11:28;14.93;;;7.50;;
22646;SDS011;11490;42.726;23.268;2022-11-02T09:13:54;20.38;;;8.10;;
22646;SDS011;11490;42.726;23.268;2022-11-02T09:16:19;16.13;;;8.00;;
22646;SDS011;11490;42.726;23.268;2022-11-02T09:18:45;17.13;;;8.20;;
22646;SDS011;11490;42.726;23.268;2022-11-02T09:21:10;19.10;;;8.10;;
22646;SDS011;11490;42.726;23.268;2022-11-02T09:23:35;24.48;;;8.43;;
22646;SDS011;11490;42.726;23.268;2022-11-02T09:26:01;19.10;;;8.60;;
22646;SDS011;11490;42.726;23.268;2022-11-02T09:28:26;17.08;;;8.18;;
22646;SDS011;11490;42.726;23.268;2022-11-02T09:30:51;16.23;;;7.45;;
22646;SDS011;11490;42.726;23.268;2022-11-02T09:33:17;26.67;;;9.20;;
22646;SDS011;11490;42.726;23.268;2022-11-02T09:35:43;16.75;;;7.28;;
22646;SDS011;11490;42.726;23.268;2022-11-02T09:38:10;14.40;;;9.10;;
22646;SDS011;11490;42.726;23.268;2022-11-02T09:40:37;20.60;;;8.82;;
22646;SDS011;11490;42.726;23.268;2022-11-02T09:43:09;22.67;;;8.93;;
22646;SDS011;11490;42.726;23.268;2022-11-02T09:45:57;18.65;;;8.63;;
22646;SDS011;11490;42.726;23.268;2022-11-02T09:48:30;12.77;;;7.05;;
22646;SDS011;11490;42.726;23.268;2022-11-02T09:51:07;25.60;;;9.73;;
22646;SDS011;11490;42.726;23.268;2022-11-02T09:53:45;24.92;;;8.40;;
22646;SDS011;11490;42.726;23.268;2022-11-02T09:56:30;16.40;;;8.05;;
22646;SDS011;11490;42.726;23.268;2022-11-02T09:59:02;16.13;;;7.03;;
22646;SDS011;11490;42.726;23.268;2022-11-02T10:15:24;18.98;;;6.72;;
22646;SDS011;11490;42.726;23.268;2022-11-02T10:18:12;19.20;;;7.72;;
22646;SDS011;11490;42.726;23.268;2022-11-02T10:20:45;16.98;;;7.32;;
22646;SDS011;11490;42.726;23.268;2022-11-02T10:26:00;16.65;;;6.57;;
22646;SDS011;11490;42.726;23.268;2022-11-02T10:28:33;17.92;;;6.45;;
22646;SDS011;11490;42.726;23.268;2022-11-02T10:31:07;12.93;;;5.95;;
22646;SDS011;11490;42.726;23.268;2022-11-02T10:33:45;22.05;;;7.30;;
22646;SDS011;11490;42.726;23.268;2022-11-02T10:36:20;13.05;;;5.43;;
22646;SDS011;11490;42.726;23.268;2022-11-02T10:41:29;14.15;;;5.38;;
22646;SDS011;11490;42.726;23.268;2022-11-02T10:51:55;16.90;;;5.35;;
22646;SDS011;11490;42.726;23.268;2022-11-02T10:54:20;15.50;;;5.18;;
22646;SDS011;11490;42.726;23.268;2022-11-02T10:56:46;13.07;;;5.47;;
22646;SDS011;11490;42.726;23.268;2022-11-02T10:59:20;15.77;;;5.68;;
22646;SDS011;11490;42.726;23.268;2022-11-02T11:04:24;5.05;;;3.22;;
22646;SDS011;11490;42.726;23.268;2022-11-02T11:06:54;11.27;;;4.07;;
22646;SDS011;11490;42.726;23.268;2022-11-02T11:09:22;9.75;;;2.85;;
22646;SDS011;11490;42.726;23.268;2022-11-02T11:12:03;10.13;;;3.63;;
22646;SDS011;11490;42.726;23.268;2022-11-02T11:14:38;7.72;;;2.78;;
22646;SDS011;11490;42.726;23.268;2022-11-02T11:17:15;9.65;;;2.88;;
22646;SDS011;11490;42.726;23.268;2022-11-02T11:20:01;7.68;;;3.13;;
22646;SDS011;11490;42.726;23.268;2022-11-02T11:22:29;4.45;;;2.78;;
22646;SDS011;11490;42.726;23.268;2022-11-02T11:27:46;8.43;;;2.47;;
22646;SDS011;11490;42.726;23.268;2022-11-02T11:32:55;5.95;;;2.80;;
22646;SDS011;11490;42.726;23.268;2022-11-02T11:35:22;8.07;;;2.17;;
22646;SDS011;11490;42.726;23.268;2022-11-02T11:37:59;4.72;;;2.25;;
22646;SDS011;11490;42.726;23.268;2022-11-02T11:40:29;11.48;;;2.60;;
22646;SDS011;11490;42.726;23.268;2022-11-02T11:42:59;13.20;;;2.10;;
22646;SDS011;11490;42.726;23.268;2022-11-02T11:45:27;6.25;;;2.53;;
22646;SDS011;11490;42.726;23.268;2022-11-02T11:48:01;6.25;;;2.20;;
22646;SDS011;11490;42.726;23.268;2022-11-02T11:50:31;8.23;;;2.78;;
22646;SDS011;11490;42.726;23.268;2022-11-02T11:55:56;8.52;;;2.55;;
22646;SDS011;11490;42.726;23.268;2022-11-02T12:01:05;7.88;;;2.60;;
22646;SDS011;11490;42.726;23.268;2022-11-02T12:03:54;13.73;;;2.83;;
22646;SDS011;11490;42.726;23.268;2022-11-02T12:14:54;5.85;;;1.95;;
22646;SDS011;11490;42.726;23.268;2022-11-02T12:17:36;7.13;;;2.58;;
22646;SDS011;11490;42.726;23.268;2022-11-02T12:23:36;9.48;;;2.63;;
22646;SDS011;11490;42.726;23.268;2022-11-02T12:29:15;5.88;;;2.78;;
22646;SDS011;11490;42.726;23.268;2022-11-02T12:31:44;6.80;;;2.38;;
22646;SDS011;11490;42.726;23.268;2022-11-02T12:43:21;7.03;;;2.45;;
22646;SDS011;11490;42.726;23.268;2022-11-02T12:46:38;8.85;;;1.92;;
22646;SDS011;11490;42.726;23.268;2022-11-02T12:57:17;6.82;;;2.22;;
22646;SDS011;11490;42.726;23.268;2022-11-02T12:59:45;6.93;;;2.58;;
22646;SDS011;11490;42.726;23.268;2022-11-02T13:02:29;11.30;;;2.58;;
22646;SDS011;11490;42.726;23.268;2022-11-02T13:05:01;4.75;;;2.22;;
22646;SDS011;11490;42.726;23.268;2022-11-02T13:07:41;10.95;;;2.72;;
22646;SDS011;11490;42.726;23.268;2022-11-02T13:10:18;7.35;;;2.20;;
22646;SDS011;11490;42.726;23.268;2022-11-02T13:12:47;10.18;;;2.50;;
22646;SDS011;11490;42.726;23.268;2022-11-02T13:15:18;10.02;;;3.08;;
22646;SDS011;11490;42.726;23.268;2022-11-02T13:17:48;6.45;;;3.00;;
22646;SDS011;11490;42.726;23.268;2022-11-02T13:20:22;10.25;;;3.47;;
22646;SDS011;11490;42.726;23.268;2022-11-02T13:22:54;5.78;;;2.78;;
22646;SDS011;11490;42.726;23.268;2022-11-02T13:25:36;9.05;;;2.88;;
22646;SDS011;11490;42.726;23.268;2022-11-02T13:30:42;10.55;;;3.67;;
22646;SDS011;11490;42.726;23.268;2022-11-02T13:33:16;3.25;;;2.10;;
22646;SDS011;11490;42.726;23.268;2022-11-02T13:35:43;6.22;;;2.72;;
22646;SDS011;11490;42.726;23.268;2022-11-02T13:52:01;7.15;;;2.72;;
22646;SDS011;11490;42.726;23.268;2022-11-02T13:54:49;8.77;;;3.03;;
22646;SDS011;11490;42.726;23.268;2022-11-02T14:00:01;5.47;;;2.75;;
22646;SDS011;11490;42.726;23.268;2022-11-02T14:02:31;7.72;;;2.55;;
22646;SDS011;11490;42.726;23.268;2022-11-02T14:05:01;9.32;;;3.40;;
22646;SDS011;11490;42.726;23.268;2022-11-02T14:09:57;20.63;;;3.30;;
22646;SDS011;11490;42.726;23.268;2022-11-02T14:12:41;10.25;;;2.75;;
22646;SDS011;11490;42.726;23.268;2022-11-02T14:20:34;9.23;;;4.25;;
22646;SDS011;11490;42.726;23.268;2022-11-02T14:30:47;9.43;;;4.90;;
22646;SDS011;11490;42.726;23.268;2022-11-02T14:33:38;12.93;;;6.00;;
22646;SDS011;11490;42.726;23.268;2022-11-02T14:36:38;13.38;;;5.57;;
22646;SDS011;11490;42.726;23.268;2022-11-02T14:42:10;10.65;;;4.32;;
22646;SDS011;11490;42.726;23.268;2022-11-02T14:47:25;12.50;;;6.10;;
22646;SDS011;11490;42.726;23.268;2022-11-02T14:52:41;13.88;;;6.75;;
22646;SDS011;11490;42.726;23.268;2022-11-02T14:57:42;16.70;;;6.00;;
22646;SDS011;11490;42.726;23.268;2022-11-02T15:00:36;12.98;;;4.88;;
22646;SDS011;11490;42.726;23.268;2022-11-02T15:03:12;11.27;;;5.15;;
22646;SDS011;11490;42.726;23.268;2022-11-02T15:05:55;12.23;;;4.90;;
22646;SDS011;11490;42.726;23.268;2022-11-02T15:08:35;8.88;;;4.40;;
22646;SDS011;11490;42.726;23.268;2022-11-02T15:17:00;12.52;;;4.00;;
22646;SDS011;11490;42.726;23.268;2022-11-02T15:24:53;15.35;;;3.53;;
22646;SDS011;11490;42.726;23.268;2022-11-02T15:27:20;14.05;;;4.05;;
22646;SDS011;11490;42.726;23.268;2022-11-02T15:29:47;12.23;;;3.88;;
22646;SDS011;11490;42.726;23.268;2022-11-02T15:32:16;14.02;;;4.70;;
22646;SDS011;11490;42.726;23.268;2022-11-02T15:34:48;12.73;;;5.05;;
22646;SDS011;11490;42.726;23.268;2022-11-02T15:37:25;12.15;;;5.32;;
22646;SDS011;11490;42.726;23.268;2022-11-02T15:39:59;10.02;;;5.07;;
22646;SDS011;11490;42.726;23.268;2022-11-02T15:43:12;11.32;;;5.45;;
22646;SDS011;11490;42.726;23.268;2022-11-02T15:59:24;23.70;;;10.63;;
22646;SDS011;11490;42.726;23.268;2022-11-02T16:04:47;23.42;;;10.27;;
22646;SDS011;11490;42.726;23.268;2022-11-02T16:07:15;21.30;;;9.73;;
22646;SDS011;11490;42.726;23.268;2022-11-02T16:09:42;25.55;;;11.52;;
22646;SDS011;11490;42.726;23.268;2022-11-02T16:12:11;22.85;;;12.02;;
22646;SDS011;11490;42.726;23.268;2022-11-02T16:14:43;22.70;;;12.25;;
22646;SDS011;11490;42.726;23.268;2022-11-02T16:17:32;29.65;;;11.32;;
22646;SDS011;11490;42.726;23.268;2022-11-02T16:20:20;34.50;;;12.15;;
22646;SDS011;11490;42.726;23.268;2022-11-02T16:28:28;12.10;;;4.82;;
22646;SDS011;11490;42.726;23.268;2022-11-02T16:33:49;13.15;;;3.75;;
22646;SDS011;11490;42.726;23.268;2022-11-02T16:39:01;9.20;;;3.72;;
22646;SDS011;11490;42.726;23.268;2022-11-02T16:41:31;10.13;;;4.03;;
22646;SDS011;11490;42.726;23.268;2022-11-02T16:43:59;6.07;;;3.92;;
22646;SDS011;11490;42.726;23.268;2022-11-02T16:49:23;9.63;;;4.35;;
22646;SDS011;11490;42.726;23.268;2022-11-02T16:51:54;13.00;;;5.18;;
22646;SDS011;11490;42.726;23.268;2022-11-02T16:57:03;13.18;;;4.70;;
22646;SDS011;11490;42.726;23.268;2022-11-02T16:59:36;10.27;;;3.70;;
22646;SDS011;11490;42.726;23.268;2022-11-02T17:02:15;7.75;;;3.67;;
22646;SDS011;11490;42.726;23.268;2022-11-02T17:04:41;7.68;;;3.97;;
22646;SDS011;11490;42.726;23.268;2022-11-02T17:07:13;11.88;;;5.15;;
22646;SDS011;11490;42.726;23.268;2022-11-02T17:09:54;12.07;;;5.05;;
22646;SDS011;11490;42.726;23.268;2022-11-02T17:12:26;15.43;;;4.50;;
22646;SDS011;11490;42.726;23.268;2022-11-02T17:14:56;7.88;;;4.70;;
22646;SDS011;11490;42.726;23.268;2022-11-02T17:25:20;5.43;;;3.65;;
22646;SDS011;11490;42.726;23.268;2022-11-02T17:27:57;9.02;;;4.30;;
22646;SDS011;11490;42.726;23.268;2022-11-02T17:33:12;16.58;;;5.68;;
22646;SDS011;11490;42.726;23.268;2022-11-02T17:35:46;17.45;;;9.95;;
22646;SDS011;11490;42.726;23.268;2022-11-02T17:38:13;36.17;;;15.30;;
22646;SDS011;11490;42.726;23.268;2022-11-02T17:40:40;33.22;;;14.02;;
22646;SDS011;11490;42.726;23.268;2022-11-02T17:43:06;16.10;;;7.25;;
22646;SDS011;11490;42.726;23.268;2022-11-02T17:45:35;18.83;;;6.57;;
22646;SDS011;11490;42.726;23.268;2022-11-02T17:48:03;14.75;;;7.00;;
22646;SDS011;11490;42.726;23.268;2022-11-02T17:50:34;13.68;;;6.28;;
22646;SDS011;11490;42.726;23.268;2022-11-02T17:53:01;16.95;;;7.90;;
22646;SDS011;11490;42.726;23.268;2022-11-02T17:55:28;15.63;;;7.90;;
22646;SDS011;11490;42.726;23.268;2022-11-02T17:57:56;18.30;;;8.60;;
22646;SDS011;11490;42.726;23.268;2022-11-02T18:00:24;21.38;;;9.73;;
22646;SDS011;11490;42.726;23.268;2022-11-02T18:02:55;20.35;;;9.43;;